Time;durP1;ratioP1;P1;durP2;ratioP2;P2;SDS_P1;SDS_P2;PMS_P1;PMS_P2;Temp;Humidity;BMP_temperature;BMP_pressure;BME280_temperature;BME280_humidity;BME280_pressure;Samples;Min_cycle;Max_cycle;Signal;HPM_P1;HPM_P2
2024/02/12 00:01:29;;;;;;;;;;;;;;;5.10;100.00;94142.88;10452691;28;2419;-66
2024/02/12 00:06:32;;;;;;;;;;;;;;;4.94;100.00;94133.41;10452060;28;1356;-62
2024/02/12 00:11:35;;;;;;;;;;;;;;;4.76;100.00;94133.00;10453572;28;1482;-65
2024/02/12 00:16:38;;;;;;;;;;;;;;;4.65;100.00;94134.16;10456056;28;1986;-64
2024/02/12 00:21:43;;;;;;;;;;;;;;;4.64;100.00;94127.22;10445290;28;1710;-65
2024/02/12 00:26:45;;;;;;;;;;;;;;;4.64;100.00;94129.09;10448894;28;1565;-62
2024/02/12 00:31:48;;;;;;;;;;;;;;;4.76;100.00;94129.53;10447661;28;1598;-64
2024/02/12 00:36:50;;;;;;;;;;;;;;;4.89;100.00;94135.03;10447517;28;1991;-65
2024/02/12 00:41:53;;;;;;;;;;;;;;;4.80;100.00;94128.72;10447309;28;1486;-65
2024/02/12 00:46:55;;;;;;;;;;;;;;;4.66;100.00;94135.75;10454486;28;2307;-65
2024/02/12 00:51:58;;;;;;;;;;;;;;;4.71;100.00;94134.91;10446560;28;1613;-65
2024/02/12 00:57:01;;;;;;;;;;;;;;;4.73;100.00;94133.56;10442296;28;1914;-63
2024/02/12 01:02:04;;;;;;;;;;;;;;;4.58;100.00;94137.13;10461072;28;1743;-64
2024/02/12 01:07:06;;;;;;;;;;;;;;;4.50;100.00;94142.22;10455591;28;1365;-65
2024/02/12 01:12:09;;;;;;;;;;;;;;;4.57;100.00;94148.03;10452446;28;1823;-64
2024/02/12 01:17:11;;;;;;;;;;;;;;;4.55;100.00;94148.31;10448517;28;1910;-63
2024/02/12 01:22:15;;;;;;;;;;;;;;;4.63;100.00;94144.25;10454522;28;1673;-66
2024/02/12 01:27:18;;;;;;;;;;;;;;;4.76;100.00;94156.94;10440272;28;1444;-64
2024/02/12 01:32:22;;;;;;;;;;;;;;;4.75;100.00;94150.03;10444012;28;1432;-64
2024/02/12 01:37:25;;;;;;;;;;;;;;;4.65;100.00;94152.00;10448564;28;1969;-65
2024/02/12 01:42:27;;;;;;;;;;;;;;;4.63;100.00;94149.59;10446134;28;2304;-64
2024/02/12 01:47:33;;;;;;;;;;;;;;;4.74;100.00;94148.47;10446509;28;1468;-64
2024/02/12 01:52:36;;;;;;;;;;;;;;;4.82;100.00;94153.19;10453629;28;1482;-64
2024/02/12 01:57:39;;;;;;;;;;;;;;;4.90;100.00;94151.84;10446674;28;1987;-64
2024/02/12 02:02:44;;;;;;;;;;;;;;;5.02;100.00;94143.47;10446552;28;1626;-64
2024/02/12 02:07:49;;;;;;;;;;;;;;;5.14;100.00;94138.56;10447662;28;1622;-64
2024/02/12 02:12:53;;;;;;;;;;;;;;;5.19;100.00;94154.53;10439676;28;1570;-64
2024/02/12 02:17:56;;;;;;;;;;;;;;;5.25;100.00;94142.75;10451028;28;1914;-64
2024/02/12 02:22:59;;;;;;;;;;;;;;;5.29;100.00;94138.47;10447093;28;1590;-66
2024/02/12 02:28:04;;;;;;;;;;;;;;;5.35;100.00;94145.34;10440271;28;2366;-72
2024/02/12 02:33:07;;;;;;;;;;;;;;;5.41;100.00;94130.91;10442501;28;1857;-64
2024/02/12 02:38:10;;;;;;;;;;;;;;;5.51;100.00;94131.84;10447887;28;1975;-64
2024/02/12 02:43:12;;;;;;;;;;;;;;;5.49;100.00;94126.81;10448692;28;1660;-63
2024/02/12 02:48:15;;;;;;;;;;;;;;;5.55;100.00;94123.03;10452691;28;1703;-63
2024/02/12 02:53:17;;;;;;;;;;;;;;;5.64;100.00;94136.53;10452136;28;1601;-65
2024/02/12 02:58:20;;;;;;;;;;;;;;;5.71;100.00;94134.31;10437412;28;1977;-68
2024/02/12 03:03:23;;;;;;;;;;;;;;;5.73;100.00;94142.84;10450927;28;1582;-68
2024/02/12 03:08:25;;;;;;;;;;;;;;;5.70;100.00;94148.72;10443038;28;1646;-66
2024/02/12 03:13:28;;;;;;;;;;;;;;;5.75;100.00;94140.69;10443599;28;2378;-69
2024/02/12 03:18:30;;;;;;;;;;;;;;;5.81;100.00;94152.09;10423429;28;1902;-74
2024/02/12 03:23:33;;;;;;;;;;;;;;;5.85;100.00;94148.59;10458817;28;1566;-69
2024/02/12 03:28:37;;;;;;;;;;;;;;;5.90;100.00;94147.72;10438438;28;2077;-64
2024/02/12 03:33:42;;;;;;;;;;;;;;;5.85;100.00;94156.59;10448162;28;1631;-64
2024/02/12 03:38:45;;;;;;;;;;;;;;;5.87;100.00;94162.41;10449961;28;1922;-63
2024/02/12 03:43:48;;;;;;;;;;;;;;;5.90;100.00;94164.50;10449394;28;1610;-64
2024/02/12 04:04:50;;;;;;;;;;;;;;;5.88;100.00;94188.00;10436630;28;1678;-64
2024/02/12 04:09:54;;;;;;;;;;;;;;;5.91;100.00;94192.00;10457403;28;2552;-65
2024/02/12 04:14:56;;;;;;;;;;;;;;;5.89;100.00;94205.59;10460949;28;1678;-64
2024/02/12 04:20:01;;;;;;;;;;;;;;;5.95;100.00;94206.38;10432835;28;1985;-63
2024/02/12 04:25:04;;;;;;;;;;;;;;;5.90;100.00;94209.84;10450070;28;1601;-64
2024/02/12 04:30:07;;;;;;;;;;;;;;;5.88;100.00;94209.34;10436093;28;1628;-63
2024/02/12 04:35:12;;;;;;;;;;;;;;;5.75;100.00;94217.19;10451306;28;1860;-64
2024/02/12 04:40:14;;;;;;;;;;;;;;;5.77;100.00;94231.84;10451899;28;2038;-64
2024/02/12 04:45:17;;;;;;;;;;;;;;;5.81;100.00;94224.88;10450909;28;1725;-64
2024/02/12 04:50:19;;;;;;;;;;;;;;;5.84;100.00;94234.97;10431401;28;1492;-65
2024/02/12 04:55:22;;;;;;;;;;;;;;;5.79;100.00;94226.22;10445198;28;1534;-65
2024/02/12 05:00:24;;;;;;;;;;;;;;;5.80;100.00;94233.97;10452619;28;1906;-64
2024/02/12 05:05:27;;;;;;;;;;;;;;;5.67;100.00;94234.59;10445072;28;2316;-64
2024/02/12 05:10:30;;;;;;;;;;;;;;;5.64;100.00;94240.47;10444220;28;1553;-63
2024/02/12 05:15:34;;;;;;;;;;;;;;;5.62;100.00;94245.31;10454010;28;1553;-64
2024/02/12 05:25:56;;;;;;;;;;;;;;;5.56;100.00;94249.09;10446105;28;1494;-63
2024/02/12 05:30:59;;;;;;;;;;;;;;;5.57;100.00;94262.13;10442337;28;1656;-65
2024/02/12 05:36:04;;;;;;;;;;;;;;;5.53;100.00;94255.75;10444056;28;1906;-65
2024/02/12 05:41:07;;;;;;;;;;;;;;;5.51;100.00;94254.44;10435203;28;1481;-64
2024/02/12 05:46:10;;;;;;;;;;;;;;;5.54;100.00;94243.25;10443407;28;1474;-64
2024/02/12 05:51:13;;;;;;;;;;;;;;;5.58;100.00;94262.94;10440386;28;1566;-64
2024/02/12 05:56:15;;;;;;;;;;;;;;;5.63;100.00;94266.34;10447599;28;1910;-64
2024/02/12 06:01:18;;;;;;;;;;;;;;;5.60;100.00;94266.91;10443129;28;2430;-64
2024/02/12 06:06:21;;;;;;;;;;;;;;;5.60;100.00;94266.91;10433543;28;1804;-64
2024/02/12 06:11:24;;;;;;;;;;;;;;;5.67;100.00;94274.59;10454793;28;1647;-64
2024/02/12 06:16:27;;;;;;;;;;;;;;;5.60;100.00;94288.25;10448996;28;1918;-64
2024/02/12 06:21:31;;;;;;;;;;;;;;;5.66;100.00;94294.31;10442249;28;1467;-69
2024/02/12 06:26:36;;;;;;;;;;;;;;;5.77;100.00;94289.69;10449126;28;1859;-65
2024/02/12 06:31:38;;;;;;;;;;;;;;;5.76;100.00;94304.91;10458095;28;1698;-65
2024/02/12 06:36:41;;;;;;;;;;;;;;;5.77;100.00;94311.81;10442061;28;1908;-68
2024/02/12 06:41:44;;;;;;;;;;;;;;;5.80;100.00;94310.50;10438063;28;1539;-63
2024/02/12 06:46:47;;;;;;;;;;;;;;;5.77;100.00;94319.81;10443291;28;2790;-63
2024/02/12 06:51:50;;;;;;;;;;;;;;;5.84;100.00;94320.31;10441989;28;1500;-64
2024/02/12 06:56:52;;;;;;;;;;;;;;;5.89;100.00;94330.94;10447585;28;1969;-64
2024/02/12 07:01:56;;;;;;;;;;;;;;;5.96;100.00;94330.63;10449428;28;1494;-63
2024/02/12 07:06:59;;;;;;;;;;;;;;;5.94;100.00;94341.59;10443843;28;1454;-64
2024/02/12 07:12:01;;;;;;;;;;;;;;;6.06;100.00;94353.78;10418460;28;1522;-66
2024/02/12 07:17:05;;;;;;;;;;;;;;;6.17;100.00;94355.25;10448921;28;1910;-64
2024/02/12 07:22:08;;;;;;;;;;;;;;;6.31;100.00;94356.22;10440460;28;1612;-64
2024/02/12 07:27:12;;;;;;;;;;;;;;;6.31;100.00;94361.56;10440131;28;1569;-63
2024/02/12 07:32:14;;;;;;;;;;;;;;;6.39;100.00;94368.16;10433518;28;1579;-65
2024/02/12 07:37:17;;;;;;;;;;;;;;;6.47;100.00;94370.22;10438648;28;1987;-68
2024/02/12 07:42:20;;;;;;;;;;;;;;;6.63;100.00;94379.69;10446456;28;2334;-66
2024/02/12 07:47:23;;;;;;;;;;;;;;;6.66;100.00;94380.97;10447365;28;1584;-65
2024/02/12 07:52:26;;;;;;;;;;;;;;;6.72;100.00;94387.84;10447905;28;1608;-63
2024/02/12 07:57:29;;;;;;;;;;;;;;;6.75;100.00;94390.78;10438338;28;1914;-64
2024/02/12 08:02:31;;;;;;;;;;;;;;;6.91;100.00;94386.06;10440728;28;1479;-63
2024/02/12 08:07:34;;;;;;;;;;;;;;;6.92;100.00;94392.97;10438061;28;1733;-64
2024/02/12 08:12:53;;;;;;;;;;;;;;;6.94;100.00;94401.53;10442018;28;1757;-63
2024/02/12 08:17:56;;;;;;;;;;;;;;;7.16;100.00;94408.22;10439395;28;1988;-64
2024/02/12 08:22:58;;;;;;;;;;;;;;;7.19;100.00;94402.28;10439207;28;1523;-63
2024/02/12 08:28:01;;;;;;;;;;;;;;;7.20;100.00;94411.94;10449309;28;2343;-64
2024/02/12 08:33:04;;;;;;;;;;;;;;;7.09;100.00;94416.59;10452199;28;1871;-69
2024/02/12 08:38:08;;;;;;;;;;;;;;;7.17;100.00;94425.84;10450686;28;1977;-64
2024/02/12 08:43:10;;;;;;;;;;;;;;;7.56;100.00;94421.09;10447613;28;1447;-64
2024/02/12 08:48:13;;;;;;;;;;;;;;;7.64;100.00;94429.56;10453584;28;1510;-64
2024/02/12 08:53:16;;;;;;;;;;;;;;;7.57;100.00;94436.06;10449539;28;1764;-66
2024/02/12 08:58:20;;;;;;;;;;;;;;;7.77;100.00;94444.91;10445553;28;1971;-64
2024/02/12 09:03:22;;;;;;;;;;;;;;;7.83;100.00;94449.09;10446430;28;1537;-64
2024/02/12 09:08:24;;;;;;;;;;;;;;;7.56;100.00;94445.16;10448946;28;2465;-65
2024/02/12 09:13:27;;;;;;;;;;;;;;;7.55;100.00;94454.25;10446072;28;1468;-63
2024/02/12 09:18:29;;;;;;;;;;;;;;;7.56;100.00;94458.53;10447599;28;1989;-63
2024/02/12 09:23:32;;;;;;;;;;;;;;;7.82;100.00;94453.66;10461233;28;1618;-63
2024/02/12 09:28:35;;;;;;;;;;;;;;;7.87;100.00;94466.16;10438316;28;1490;-64
2024/02/12 09:33:38;;;;;;;;;;;;;;;7.76;100.00;94459.34;10432155;28;1639;-64
2024/02/12 09:38:41;;;;;;;;;;;;;;;8.13;100.00;94464.72;10449254;28;1909;-63
2024/02/12 09:43:43;;;;;;;;;;;;;;;8.37;100.00;94469.22;10448187;28;1575;-63
2024/02/12 09:48:46;;;;;;;;;;;;;;;8.72;100.00;94475.13;10451821;28;2555;-64
2024/02/12 09:53:51;;;;;;;;;;;;;;;8.89;100.00;94480.72;10456653;28;1844;-64
2024/02/12 09:58:54;;;;;;;;;;;;;;;8.52;100.00;94493.09;10448356;28;1926;-64
2024/02/12 10:03:56;;;;;;;;;;;;;;;8.44;100.00;94485.72;10454488;28;1931;-63
2024/02/12 10:08:59;;;;;;;;;;;;;;;8.54;100.00;94482.09;10449651;28;1528;-64
2024/02/12 10:14:04;;;;;;;;;;;;;;;8.50;100.00;94497.16;10443554;28;1622;-64
2024/02/12 10:19:07;;;;;;;;;;;;;;;8.16;100.00;94497.38;10449572;28;2030;-64
2024/02/12 10:24:10;;;;;;;;;;;;;;;8.22;100.00;94504.25;10443018;28;1517;-71
2024/02/12 10:29:13;;;;;;;;;;;;;;;7.92;100.00;94500.09;10446477;28;2538;-74
2024/02/12 10:34:16;;;;;;;;;;;;;;;8.03;100.00;94504.22;10448794;28;1446;-69
2024/02/12 10:39:19;;;;;;;;;;;;;;;8.20;100.00;94490.31;10449014;28;1973;-68
2024/02/12 10:44:22;;;;;;;;;;;;;;;8.44;100.00;94504.47;10452148;28;1834;-68
2024/02/12 10:49:26;;;;;;;;;;;;;;;8.38;100.00;94497.59;10443786;28;1527;-66
2024/02/12 10:54:29;;;;;;;;;;;;;;;8.47;100.00;94506.56;10447458;28;1836;-65
2024/02/12 10:59:32;;;;;;;;;;;;;;;8.74;100.00;94497.06;10449600;28;1910;-65
2024/02/12 11:04:34;;;;;;;;;;;;;;;8.95;100.00;94495.63;10450594;28;1613;-65
2024/02/12 11:09:37;;;;;;;;;;;;;;;8.89;100.00;94502.16;10438487;28;2581;-65
2024/02/12 11:14:39;;;;;;;;;;;;;;;8.31;100.00;94502.50;10440506;28;1875;-64
2024/02/12 11:19:42;;;;;;;;;;;;;;;8.29;100.00;94504.66;10441000;28;1914;-65
2024/02/12 11:24:45;;;;;;;;;;;;;;;8.87;100.00;94501.66;10453472;28;1427;-65
2024/02/12 11:29:48;;;;;;;;;;;;;;;9.55;100.00;94497.50;10441780;28;1474;-65
2024/02/12 11:34:51;;;;;;;;;;;;;;;9.73;100.00;94496.59;10439118;28;1478;-65
2024/02/12 11:39:53;;;;;;;;;;;;;;;9.71;100.00;94490.72;10440348;28;1906;-64
2024/02/12 11:44:56;;;;;;;;;;;;;;;9.71;100.00;94507.63;10445457;28;1416;-64
2024/02/12 11:50:00;;;;;;;;;;;;;;;9.55;100.00;94501.00;10433723;28;1478;-64
2024/02/12 11:55:07;;;;;;;;;;;;;;;9.90;100.00;94491.41;10453082;28;2836;-63
2024/02/12 12:00:16;;;;;;;;;;;;;;;9.72;100.00;94500.38;10424263;28;1918;-64
2024/02/12 12:05:18;;;;;;;;;;;;;;;9.69;100.00;94496.41;10449639;28;1788;-66
2024/02/12 12:10:21;;;;;;;;;;;;;;;9.48;100.00;94500.59;10455886;28;1488;-64
2024/02/12 12:15:23;;;;;;;;;;;;;;;9.83;100.00;94503.66;10449589;28;1938;-65
2024/02/12 12:20:29;;;;;;;;;;;;;;;10.14;100.00;94499.25;10447274;28;1975;-65
2024/02/12 12:25:36;;;;;;;;;;;;;;;10.31;100.00;94489.75;10447609;28;1756;-63
2024/02/12 12:30:39;;;;;;;;;;;;;;;10.27;100.00;94495.75;10441897;28;2723;-63
2024/02/12 12:35:42;;;;;;;;;;;;;;;10.69;100.00;94490.25;10447156;28;1662;-64
2024/02/12 12:40:44;;;;;;;;;;;;;;;11.04;100.00;94486.69;10451634;28;1985;-65
2024/02/12 12:45:52;;;;;;;;;;;;;;;11.37;100.00;94492.56;10450368;28;1684;-65
2024/02/12 12:50:55;;;;;;;;;;;;;;;11.21;100.00;94480.63;10447109;28;1753;-64
2024/02/12 12:56:02;;;;;;;;;;;;;;;11.52;100.00;94482.50;10449618;28;1439;-64
2024/02/12 13:01:05;;;;;;;;;;;;;;;10.88;100.00;94490.06;10450840;28;1919;-63
2024/02/12 13:06:12;;;;;;;;;;;;;;;10.63;100.00;94494.97;10451141;28;1670;-63
2024/02/12 13:11:15;;;;;;;;;;;;;;;10.42;100.00;94493.81;10452515;28;1550;-64
2024/02/12 13:16:18;;;;;;;;;;;;;;;10.70;100.00;94500.69;10442461;28;2713;-62
2024/02/12 13:21:20;;;;;;;;;;;;;;;10.34;100.00;94508.78;10454415;28;1918;-64
2024/02/12 13:26:24;;;;;;;;;;;;;;;9.92;100.00;94504.53;10453716;28;1459;-64
2024/02/12 13:31:28;;;;;;;;;;;;;;;9.95;100.00;94506.63;10451342;28;1804;-64
2024/02/12 13:36:34;;;;;;;;;;;;;;;10.03;100.00;94508.59;10452216;28;1499;-70
2024/02/12 13:41:39;;;;;;;;;;;;;;;10.08;100.00;94510.38;10457391;28;1977;-70
2024/02/12 13:46:43;;;;;;;;;;;;;;;9.95;100.00;94512.00;10452799;28;1850;-68
2024/02/12 13:51:45;;;;;;;;;;;;;;;9.65;100.00;94514.19;10442620;28;1559;-70
2024/02/12 13:56:48;;;;;;;;;;;;;;;9.62;100.00;94520.16;10453635;28;2323;-68
2024/02/12 14:01:53;;;;;;;;;;;;;;;9.59;100.00;94523.41;10443393;28;1922;-65
2024/02/12 14:07:05;;;;;;;;;;;;;;;9.60;100.00;94527.69;10455003;28;1591;-66
2024/02/12 14:12:08;;;;;;;;;;;;;;;9.67;100.00;94536.16;10439151;28;1869;-64
2024/02/12 14:17:11;;;;;;;;;;;;;;;9.57;100.00;94539.03;10440925;28;1677;-63
2024/02/12 14:22:13;;;;;;;;;;;;;;;9.40;100.00;94544.97;10447874;28;1980;-63
2024/02/12 14:27:18;;;;;;;;;;;;;;;9.13;100.00;94556.44;10441837;28;1651;-63
2024/02/12 14:32:24;;;;;;;;;;;;;;;9.08;100.00;94556.50;10441532;28;1709;-63
2024/02/12 14:37:44;;;;;;;;;;;;;;;8.96;100.00;94572.25;10451240;28;1530;-63
2024/02/12 14:42:48;;;;;;;;;;;;;;;8.89;100.00;94574.50;10438241;28;1901;-65
2024/02/12 14:47:51;;;;;;;;;;;;;;;8.88;100.00;94580.97;10442825;28;1510;-64
2024/02/12 14:52:54;;;;;;;;;;;;;;;9.21;100.00;94585.25;10444223;28;2312;-65
2024/02/12 14:57:57;;;;;;;;;;;;;;;9.31;100.00;94588.84;10423384;28;2529;-71
2024/02/12 15:02:59;;;;;;;;;;;;;;;9.21;100.00;94601.31;10436835;28;1981;-65
2024/02/12 15:08:03;;;;;;;;;;;;;;;9.28;100.00;94609.00;10447907;28;1873;-64
2024/02/12 15:13:06;;;;;;;;;;;;;;;9.16;100.00;94617.53;10448072;28;1757;-65
2024/02/12 15:18:12;;;;;;;;;;;;;;;8.75;100.00;94621.88;10442153;28;1714;-72
2024/02/12 15:23:15;;;;;;;;;;;;;;;8.51;100.00;94625.41;10442983;28;1914;-64
2024/02/12 15:28:18;;;;;;;;;;;;;;;8.42;100.00;94637.88;10443923;28;1509;-65
2024/02/12 15:33:21;;;;;;;;;;;;;;;8.33;100.00;94644.88;10449110;28;2502;-65
2024/02/12 15:38:25;;;;;;;;;;;;;;;8.24;100.00;94658.13;10443164;28;1989;-64
2024/02/12 15:43:30;;;;;;;;;;;;;;;8.18;100.00;94669.19;10437413;28;1502;-64
2024/02/12 15:48:33;;;;;;;;;;;;;;;8.22;100.00;94678.25;10448024;28;1598;-64
2024/02/12 15:53:35;;;;;;;;;;;;;;;8.01;100.00;94688.34;10436696;28;1490;-64
2024/02/12 15:58:38;;;;;;;;;;;;;;;7.76;100.00;94700.91;10436609;28;1973;-64
2024/02/12 16:03:40;;;;;;;;;;;;;;;7.72;100.00;94715.13;10440886;28;1486;-64
2024/02/12 16:08:44;;;;;;;;;;;;;;;7.61;100.00;94725.09;10453258;28;1607;-64
2024/02/12 16:13:49;;;;;;;;;;;;;;;7.48;100.00;94725.75;10424278;28;2309;-64
2024/02/12 16:18:54;;;;;;;;;;;;;;;7.32;100.00;94738.44;10444809;28;1910;-65
2024/02/12 16:23:56;;;;;;;;;;;;;;;7.32;100.00;94741.13;10441207;28;1505;-65
2024/02/12 16:29:00;;;;;;;;;;;;;;;7.21;100.00;94753.75;10445705;28;1674;-63
2024/02/12 16:34:03;;;;;;;;;;;;;;;7.17;100.00;94759.91;10431974;28;1631;-64
2024/02/12 16:39:05;;;;;;;;;;;;;;;7.08;100.00;94766.94;10442366;28;1910;-64
2024/02/12 16:44:08;;;;;;;;;;;;;;;6.97;100.00;94784.88;10449279;28;1486;-65
2024/02/12 16:49:11;;;;;;;;;;;;;;;6.93;100.00;94792.63;10442169;28;1552;-63
2024/02/12 16:54:14;;;;;;;;;;;;;;;6.78;100.00;94808.72;10448285;28;1599;-62
2024/02/12 16:59:19;;;;;;;;;;;;;;;6.81;100.00;94810.03;10465936;28;1983;-63
2024/02/12 17:04:22;;;;;;;;;;;;;;;6.69;100.00;94824.53;10439989;28;1733;-65
2024/02/12 17:09:24;;;;;;;;;;;;;;;6.48;100.00;94825.63;10442740;28;2395;-63
2024/02/12 17:14:29;;;;;;;;;;;;;;;6.33;100.00;94833.69;10456638;28;1615;-63
2024/02/12 17:19:31;;;;;;;;;;;;;;;6.20;100.00;94859.03;10455434;28;1910;-63
2024/02/12 17:24:34;;;;;;;;;;;;;;;6.21;100.00;94872.13;10453143;28;1615;-67
2024/02/12 17:29:37;;;;;;;;;;;;;;;6.30;100.00;94876.91;10451978;28;1915;-65
2024/02/12 17:34:39;;;;;;;;;;;;;;;6.40;100.00;94872.38;10451293;28;1619;-70
2024/02/12 17:39:44;;;;;;;;;;;;;;;6.44;100.00;94881.44;10452029;28;1914;-67
2024/02/12 17:44:47;;;;;;;;;;;;;;;6.43;100.00;94892.41;10454952;28;1507;-65
2024/02/12 17:49:50;;;;;;;;;;;;;;;6.43;100.00;94898.53;10450809;28;1474;-72
2024/02/12 17:54:52;;;;;;;;;;;;;;;6.43;100.00;94901.22;10445640;28;1724;-71
2024/02/12 17:59:55;;;;;;;;;;;;;;;6.39;100.00;94902.00;10448259;28;1969;-64
2024/02/12 18:04:58;;;;;;;;;;;;;;;6.29;100.00;94918.00;10446996;28;2654;-66
2024/02/12 18:10:01;;;;;;;;;;;;;;;6.29;100.00;94931.34;10456070;28;1463;-64
2024/02/12 18:15:03;;;;;;;;;;;;;;;6.37;100.00;94931.66;10446465;28;2189;-64
2024/02/12 18:20:05;;;;;;;;;;;;;;;6.45;100.00;94938.31;10446364;28;1922;-62
2024/02/12 18:25:11;;;;;;;;;;;;;;;6.54;100.00;94941.22;10448087;28;1734;-63
2024/02/12 18:30:14;;;;;;;;;;;;;;;6.41;100.00;94947.91;10449586;28;1651;-64
2024/02/12 18:35:17;;;;;;;;;;;;;;;6.49;100.00;94963.41;10447278;28;1922;-63
2024/02/12 18:40:21;;;;;;;;;;;;;;;6.25;100.00;95003.16;10441703;28;1910;-64
2024/02/12 18:45:24;;;;;;;;;;;;;;;4.72;100.00;95033.63;10450411;28;1606;-64
2024/02/12 18:50:28;;;;;;;;;;;;;;;3.90;100.00;95043.50;10424886;28;1551;-64
2024/02/12 18:55:31;;;;;;;;;;;;;;;3.91;100.00;95044.31;10444776;28;1542;-66
2024/02/12 19:00:35;;;;;;;;;;;;;;;3.95;100.00;95046.22;10440129;28;2281;-70
2024/02/12 19:05:37;;;;;;;;;;;;;;;4.13;100.00;95057.56;10442932;28;1510;-68
2024/02/12 19:10:40;;;;;;;;;;;;;;;4.30;100.00;95053.75;10444104;28;1440;-67
2024/02/12 19:15:43;;;;;;;;;;;;;;;4.43;100.00;95070.38;10451688;28;1623;-65
2024/02/12 19:20:45;;;;;;;;;;;;;;;4.64;100.00;95069.47;10448690;28;1972;-65
2024/02/12 19:25:49;;;;;;;;;;;;;;;4.69;100.00;95087.38;10443619;28;1498;-65
2024/02/12 19:30:51;;;;;;;;;;;;;;;4.59;100.00;95099.53;10438416;28;1535;-65
2024/02/12 19:35:54;;;;;;;;;;;;;;;4.61;100.00;95092.09;10447651;28;1543;-65
2024/02/12 19:40:56;;;;;;;;;;;;;;;4.69;100.00;95106.00;10444351;28;1922;-65
2024/02/12 19:45:59;;;;;;;;;;;;;;;4.74;100.00;95114.03;10439775;28;1555;-65
2024/02/12 19:51:04;;;;;;;;;;;;;;;4.82;100.00;95114.38;10438051;28;1497;-65
2024/02/12 19:56:08;;;;;;;;;;;;;;;4.82;100.00;95125.03;10452522;28;2283;-65
2024/02/12 20:01:11;;;;;;;;;;;;;;;4.81;100.00;95131.41;10458123;28;1910;-65
2024/02/12 20:06:14;;;;;;;;;;;;;;;4.79;100.00;95136.19;10440232;28;1493;-66
2024/02/12 20:11:18;;;;;;;;;;;;;;;4.83;100.00;95144.47;10449439;28;1824;-66
2024/02/12 20:16:21;;;;;;;;;;;;;;;4.88;100.00;95149.84;10451465;28;1537;-67
2024/02/12 20:21:24;;;;;;;;;;;;;;;4.92;100.00;95156.28;10449980;28;1910;-66
2024/02/12 20:26:26;;;;;;;;;;;;;;;5.00;100.00;95160.34;10448750;28;1491;-67
2024/02/12 20:31:29;;;;;;;;;;;;;;;5.03;100.00;95165.16;10449879;28;1489;-67
2024/02/12 20:36:34;;;;;;;;;;;;;;;5.05;100.00;95179.03;10446315;28;1856;-66
2024/02/12 20:41:37;;;;;;;;;;;;;;;5.14;100.00;95191.63;10455366;28;1917;-66
2024/02/12 20:46:40;;;;;;;;;;;;;;;5.17;100.00;95203.66;10452932;28;1514;-66
2024/02/12 20:51:49;;;;;;;;;;;;;;;5.16;100.00;95199.38;10444159;28;1658;-66
2024/02/12 20:56:52;;;;;;;;;;;;;;;5.22;100.00;95214.34;10459126;28;1578;-65
2024/02/12 21:01:54;;;;;;;;;;;;;;;5.31;100.00;95220.03;10457556;28;1910;-66
2024/02/12 21:06:57;;;;;;;;;;;;;;;5.29;100.00;95224.81;10454528;28;1587;-66
2024/02/12 21:11:59;;;;;;;;;;;;;;;5.28;100.00;95240.00;10452154;28;1729;-65
2024/02/12 21:17:03;;;;;;;;;;;;;;;5.29;100.00;95251.47;10461088;28;1573;-64
2024/02/12 21:22:08;;;;;;;;;;;;;;;5.21;100.00;95250.03;10450320;28;1979;-65
2024/02/12 21:27:13;;;;;;;;;;;;;;;5.11;100.00;95255.28;10440231;28;1539;-67
2024/02/12 21:32:18;;;;;;;;;;;;;;;5.08;100.00;95261.91;10446366;28;1482;-65
2024/02/12 21:37:22;;;;;;;;;;;;;;;4.99;100.00;95262.63;10423518;28;1511;-65
2024/02/12 21:42:26;;;;;;;;;;;;;;;4.92;100.00;95268.13;10459115;28;1906;-66
2024/02/12 21:47:29;;;;;;;;;;;;;;;4.91;100.00;95276.38;10451888;28;1475;-66
2024/02/12 21:52:33;;;;;;;;;;;;;;;4.85;100.00;95278.19;10443086;28;2310;-66
2024/02/12 21:57:35;;;;;;;;;;;;;;;4.74;100.00;95287.09;10440998;28;1595;-67
2024/02/12 22:02:37;;;;;;;;;;;;;;;4.66;100.00;95291.00;10449365;28;1976;-66
2024/02/12 22:07:40;;;;;;;;;;;;;;;4.57;100.00;95295.13;10448087;28;1517;-68
2024/02/12 22:12:44;;;;;;;;;;;;;;;4.64;100.00;95306.41;10445334;28;1773;-65
2024/02/12 22:17:46;;;;;;;;;;;;;;;4.71;100.00;95308.88;10449545;28;1594;-66
2024/02/12 22:22:50;;;;;;;;;;;;;;;4.64;100.00;95308.25;10456788;28;1918;-65
2024/02/12 22:27:53;;;;;;;;;;;;;;;4.49;100.00;95317.69;10445165;28;1802;-64
2024/02/12 22:32:57;;;;;;;;;;;;;;;4.43;100.00;95317.84;10442364;28;1666;-65
2024/02/12 22:38:00;;;;;;;;;;;;;;;4.41;100.00;95335.94;10443475;28;1491;-66
2024/02/12 22:43:03;;;;;;;;;;;;;;;4.40;100.00;95342.31;10443791;28;2558;-64
2024/02/12 22:48:05;;;;;;;;;;;;;;;4.28;100.00;95353.84;10439111;28;1762;-64
2024/02/12 22:53:10;;;;;;;;;;;;;;;4.25;100.00;95356.19;10450490;28;1602;-64
2024/02/12 22:58:12;;;;;;;;;;;;;;;4.26;100.00;95369.25;10439796;28;1607;-64
2024/02/12 23:03:15;;;;;;;;;;;;;;;4.32;100.00;95381.56;10439298;28;1974;-66
2024/02/12 23:08:17;;;;;;;;;;;;;;;4.34;100.00;95374.16;10449049;28;1550;-71
2024/02/12 23:13:21;;;;;;;;;;;;;;;4.44;100.00;95383.34;10444000;28;1666;-69
2024/02/12 23:18:24;;;;;;;;;;;;;;;4.49;100.00;95397.53;10448526;28;1332;-65
2024/02/12 23:23:27;;;;;;;;;;;;;;;4.48;100.00;95405.75;10426474;28;1979;-65
2024/02/12 23:28:35;;;;;;;;;;;;;;;4.49;100.00;95408.16;10438469;28;1505;-65
2024/02/12 23:33:37;;;;;;;;;;;;;;;4.45;100.00;95411.56;10437342;28;1448;-65
2024/02/12 23:38:40;;;;;;;;;;;;;;;4.36;100.00;95413.03;10445431;28;1454;-65
2024/02/12 23:43:43;;;;;;;;;;;;;;;4.22;100.00;95424.00;10443925;28;1925;-69
2024/02/12 23:48:46;;;;;;;;;;;;;;;4.25;100.00;95428.00;10443748;28;2850;-64
2024/02/12 23:53:48;;;;;;;;;;;;;;;4.25;100.00;95436.00;10444409;28;1566;-65
2024/02/12 23:58:51;;;;;;;;;;;;;;;4.38;100.00;95435.66;10446392;28;1514;-65
